Time;durP1;ratioP1;P1;durP2;ratioP2;P2;SDS_P1;SDS_P2;PMS_P1;PMS_P2;Temp;Humidity;BMP_temperature;BMP_pressure;BME280_temperature;BME280_humidity;BME280_pressure;Samples;Min_cycle;Max_cycle;Signal;HPM_P1;HPM_P2
2022/08/25 00:00:20;;;;;;;9.90;6.40;;;;;;;29.66;44.82;101783.19;5080599;28;20111;-72
2022/08/25 00:02:46;;;;;;;9.77;6.20;;;;;;;29.52;45.06;101786.16;5086958;28;20034;-72
2022/08/25 00:05:13;;;;;;;8.98;6.13;;;;;;;29.50;45.26;101789.22;5092478;28;20099;-72
2022/08/25 00:07:38;;;;;;;11.90;6.50;;;;;;;29.45;45.33;101789.41;5092117;28;20032;-72
2022/08/25 00:10:05;;;;;;;11.18;6.22;;;;;;;29.36;45.11;101785.84;5092563;28;20046;-72
2022/08/25 00:12:30;;;;;;;9.40;6.47;;;;;;;29.24;45.63;101779.34;5073919;28;20024;-71
2022/08/25 00:14:56;;;;;;;7.53;5.97;;;;;;;29.30;45.60;101780.81;5094785;28;20040;-72
2022/08/25 00:17:21;;;;;;;8.35;6.50;;;;;;;29.18;45.40;101783.41;5081695;28;20033;-72
2022/08/25 00:19:47;;;;;;;13.15;6.03;;;;;;;29.00;45.71;101779.81;5075043;28;20037;-72
2022/08/25 00:22:12;;;;;;;6.78;5.90;;;;;;;29.06;46.10;101781.28;5075677;28;20028;-72
2022/08/25 00:24:38;;;;;;;11.10;5.93;;;;;;;29.03;45.93;101783.91;5075207;28;20044;-73
2022/08/25 00:27:04;;;;;;;13.00;5.80;;;;;;;29.00;46.00;101792.84;5075119;28;20029;-72
2022/08/25 00:29:30;;;;;;;10.05;6.47;;;;;;;28.94;46.17;101791.38;5074773;28;20041;-72
2022/08/25 00:31:56;;;;;;;10.20;6.32;;;;;;;28.93;45.89;101796.13;5074976;28;20112;-71
2022/08/25 00:34:25;;;;;;;7.68;6.15;;;;;;;28.87;46.02;101794.66;5074864;28;20031;-69
2022/08/25 00:36:51;;;;;;;9.20;6.35;;;;;;;28.94;45.67;101792.19;5075011;28;20055;-72
2022/08/25 00:39:20;;;;;;;7.15;5.75;;;;;;;28.79;46.23;101800.97;5074361;28;20048;-72
2022/08/25 00:41:45;;;;;;;11.43;5.75;;;;;;;28.80;45.78;101799.81;5074496;28;20044;-72
2022/08/25 00:44:13;;;;;;;15.77;5.93;;;;;;;28.79;46.02;101795.44;5093967;28;20113;-73
2022/08/25 00:46:45;;;;;;;7.63;5.65;;;;;;;28.87;46.08;101796.59;5094470;28;20043;-72
2022/08/25 00:49:30;;;;;;;8.48;6.18;;;;;;;28.92;44.92;101788.13;5095323;28;20110;-72
2022/08/25 00:52:00;;;;;;;7.25;5.70;;;;;;;28.80;45.72;101785.16;5094823;28;20104;-72
2022/08/25 00:54:28;;;;;;;;;;;;;;;28.76;45.80;101801.63;5095354;28;20034;-73
2022/08/25 00:56:55;;;;;;;9.80;5.40;;;;;;;28.75;45.59;101793.66;5094477;28;19916;-72
2022/08/25 00:59:22;;;;;;;9.77;5.63;;;;;;;28.77;45.65;101794.13;5094253;28;20123;-72
2022/08/25 01:01:49;;;;;;;10.65;5.43;;;;;;;28.68;45.73;101787.78;5094225;28;20047;-72
2022/08/25 01:04:15;;;;;;;7.80;5.72;;;;;;;28.63;45.96;101797.06;5095025;28;20026;-72
2022/08/25 01:06:43;;;;;;;8.25;5.13;;;;;;;28.70;44.83;101791.84;5094100;28;20111;-73
2022/08/25 01:09:09;;;;;;;6.20;4.78;;;;;;;28.69;44.88;101794.94;5094200;28;20047;-72
2022/08/25 01:11:35;;;;;;;8.77;4.85;;;;;;;28.84;44.55;101788.91;5094021;28;20036;-72
2022/08/25 01:14:05;;;;;;;9.65;4.78;;;;;;;28.85;43.32;101787.78;5079802;28;20043;-71
2022/08/25 01:16:33;;;;;;;8.80;4.57;;;;;;;28.84;43.37;101786.16;5087192;28;20024;-71
2022/08/25 01:18:59;;;;;;;9.30;4.72;;;;;;;28.85;42.79;101785.84;5094060;28;20028;-72
2022/08/25 01:21:28;;;;;;;6.28;4.20;;;;;;;28.78;42.84;101792.97;5093749;28;20047;-73
2022/08/25 01:23:57;;;;;;;6.97;3.97;;;;;;;28.69;42.11;101787.47;5093566;28;20032;-72
2022/08/25 01:26:29;;;;;;;7.78;4.57;;;;;;;28.78;41.53;101785.50;5093685;28;20036;-72
2022/08/25 01:31:40;;;;;;;7.05;4.18;;;;;;;28.52;41.50;101790.97;5093751;28;20055;-72
2022/08/25 01:34:13;;;;;;;7.38;4.13;;;;;;;28.60;41.21;101786.63;5094305;28;20028;-72
2022/08/25 01:36:40;;;;;;;4.45;3.58;;;;;;;28.70;41.28;101785.50;5093345;28;20043;-72
2022/08/25 01:39:06;;;;;;;6.18;3.78;;;;;;;28.71;40.58;101787.94;5093432;28;20036;-73
2022/08/25 01:41:35;;;;;;;5.75;3.70;;;;;;;28.77;40.53;101781.13;5093539;28;20040;-72
2022/08/25 01:44:04;;;;;;;8.85;4.18;;;;;;;28.79;40.55;101781.63;5093049;28;20043;-72
2022/08/25 01:46:31;;;;;;;4.28;3.42;;;;;;;28.66;41.09;101782.56;5093679;28;20104;-72
2022/08/25 01:48:58;;;;;;;5.90;3.72;;;;;;;28.57;40.89;101777.03;5093827;28;20495;-72
2022/08/25 01:51:28;;;;;;;8.23;4.03;;;;;;;28.39;41.21;101774.50;5093081;28;20060;-72
2022/08/25 01:53:53;;;;;;;8.45;3.70;;;;;;;28.49;40.87;101779.75;5093250;28;20345;-73
2022/08/25 01:56:19;;;;;;;5.68;3.50;;;;;;;28.49;40.41;101771.44;5093051;28;20059;-72
2022/08/25 01:58:47;;;;;;;4.95;3.00;;;;;;;28.31;40.42;101770.59;5093332;28;20032;-72
2022/08/25 02:01:17;;;;;;;5.20;3.10;;;;;;;28.54;39.66;101772.13;5093363;28;20039;-73
2022/08/25 02:03:50;;;;;;;8.05;3.40;;;;;;;28.56;39.34;101775.38;5093082;28;20040;-72
2022/08/25 02:06:20;;;;;;;9.38;2.90;;;;;;;28.56;38.93;101767.09;5093087;28;20526;-72
2022/08/25 02:08:54;;;;;;;7.80;2.90;;;;;;;28.58;38.50;101769.53;5092926;28;20040;-72
2022/08/25 02:11:20;;;;;;;6.97;3.22;;;;;;;28.49;38.68;101768.69;5092812;28;20044;-72
2022/08/25 02:13:46;;;;;;;8.45;3.10;;;;;;;28.55;39.06;101764.66;5092566;28;20036;-73
2022/08/25 02:16:18;;;;;;;4.72;3.30;;;;;;;28.57;38.68;101773.44;5089575;28;20109;-72
2022/08/25 02:18:44;;;;;;;7.18;2.88;;;;;;;28.46;38.50;101780.41;5092839;28;20464;-72
2022/08/25 02:21:10;;;;;;;3.72;2.80;;;;;;;28.33;38.91;101775.78;5092770;28;20047;-73
2022/08/25 02:23:35;;;;;;;10.32;3.05;;;;;;;28.45;38.70;101776.81;5092683;28;20028;-72
2022/08/25 02:26:02;;;;;;;6.65;3.17;;;;;;;28.23;38.07;101779.69;5092741;28;20540;-72
2022/08/25 02:28:27;;;;;;;3.72;2.72;;;;;;;28.36;37.82;101775.97;5092420;28;20032;-72
2022/08/25 02:30:53;;;;;;;6.68;2.80;;;;;;;28.38;37.88;101775.66;5093059;28;20019;-72
2022/08/25 02:33:18;;;;;;;4.55;3.30;;;;;;;28.27;37.85;101775.13;5092454;28;20040;-73
2022/08/25 02:35:43;;;;;;;10.98;3.20;;;;;;;28.23;37.93;101774.16;5091748;28;20047;-72
2022/08/25 02:38:09;;;;;;;5.50;3.00;;;;;;;28.21;37.74;101775.59;5092051;28;20028;-71
2022/08/25 02:40:36;;;;;;;7.30;3.10;;;;;;;28.20;37.99;101780.34;5092405;28;20047;-71
2022/08/25 02:43:01;;;;;;;7.45;2.92;;;;;;;28.26;37.45;101778.22;5092641;28;20043;-72
2022/08/25 02:45:27;;;;;;;5.60;2.78;;;;;;;28.28;37.39;101784.25;5092130;28;20040;-72
2022/08/25 02:47:53;;;;;;;4.65;3.13;;;;;;;28.23;37.41;101789.91;5073920;28;20039;-73
2022/08/25 02:50:19;;;;;;;6.03;3.40;;;;;;;28.40;37.28;101787.22;5092260;28;20032;-72
2022/08/25 02:52:45;;;;;;;6.45;2.97;;;;;;;28.31;37.63;101783.59;5092055;28;20051;-72
2022/08/25 02:55:12;;;;;;;8.15;2.97;;;;;;;28.33;37.68;101789.63;5092699;28;20016;-73
2022/08/25 02:57:39;;;;;;;14.80;3.13;;;;;;;28.34;37.17;101775.47;5073889;28;20036;-73
2022/08/25 03:00:05;;;;;;;7.22;3.03;;;;;;;28.25;37.70;101774.63;5091735;28;20047;-73
2022/08/25 03:02:31;;;;;;;6.82;2.97;;;;;;;28.21;38.03;101770.88;5091550;28;20043;-73
2022/08/25 03:04:56;;;;;;;10.02;3.25;;;;;;;28.19;38.13;101773.16;5090701;28;20388;-72
2022/08/25 03:07:22;;;;;;;8.27;3.35;;;;;;;28.08;37.62;101769.06;5071274;28;20028;-72
2022/08/25 03:09:48;;;;;;;7.90;3.15;;;;;;;28.05;37.99;101768.91;5071434;28;20033;-72
2022/08/25 03:12:13;;;;;;;3.72;3.20;;;;;;;27.95;38.03;101767.22;5071115;28;20044;-73
2022/08/25 03:14:39;;;;;;;6.32;3.30;;;;;;;27.98;37.78;101763.00;5070060;28;20040;-72
2022/08/25 03:17:05;;;;;;;4.95;3.00;;;;;;;28.05;38.19;101766.13;5087689;28;20035;-72
2022/08/25 03:19:31;;;;;;;4.80;3.28;;;;;;;28.06;37.99;101760.28;5090259;28;20031;-71
2022/08/25 03:21:58;;;;;;;7.70;3.92;;;;;;;28.00;37.88;101755.22;5090891;28;20016;-73
2022/08/25 03:24:25;;;;;;;4.28;3.10;;;;;;;28.01;38.25;101757.66;5090546;28;20043;-72
2022/08/25 03:26:54;;;;;;;6.20;3.47;;;;;;;27.87;38.22;101747.81;5090170;28;20043;-72
2022/08/25 03:29:32;;;;;;;11.32;3.17;;;;;;;27.75;38.35;101759.47;5090280;28;20029;-72
2022/08/25 03:31:59;;;;;;;11.32;3.83;;;;;;;27.52;39.19;101753.16;5090333;28;20051;-72
2022/08/25 03:34:26;;;;;;;6.85;4.10;;;;;;;27.65;38.81;101749.53;5072558;28;20028;-72
2022/08/25 03:36:53;;;;;;;11.20;3.80;;;;;;;27.59;38.95;101748.03;5091794;28;20024;-73
2022/08/25 03:39:22;;;;;;;6.65;3.83;;;;;;;27.60;39.60;101755.16;5091774;28;20036;-72
2022/08/25 03:41:48;;;;;;;6.47;3.53;;;;;;;27.49;39.76;101751.06;5091453;28;20139;-73
2022/08/25 03:44:15;;;;;;;6.93;4.00;;;;;;;27.51;39.26;101754.31;5091296;28;20051;-72
2022/08/25 03:46:43;;;;;;;8.30;4.03;;;;;;;27.48;38.96;101743.88;5091329;28;20028;-72
2022/08/25 03:49:13;;;;;;;5.85;4.35;;;;;;;27.36;39.29;101740.88;5095658;28;20028;-73
2022/08/25 03:51:47;;;;;;;11.73;3.80;;;;;;;27.39;39.28;101744.97;5095546;28;20042;-71
2022/08/25 03:54:19;;;;;;;7.22;4.07;;;;;;;27.42;38.98;101739.63;5095407;28;20043;-72
2022/08/25 03:56:45;;;;;;;10.93;4.18;;;;;;;27.48;38.64;101743.06;5094967;28;20442;-73
2022/08/25 03:59:11;;;;;;;5.95;4.10;;;;;;;27.52;38.78;101742.13;5094885;28;20115;-72
2022/08/25 04:01:38;;;;;;;8.27;3.85;;;;;;;27.27;38.70;101747.47;5088742;28;20067;-72
2022/08/25 04:04:05;;;;;;;6.50;3.70;;;;;;;27.34;38.65;101739.59;5074620;28;20086;-73
2022/08/25 04:06:31;;;;;;;11.52;4.07;;;;;;;27.16;39.12;101735.88;5071661;28;20020;-72
2022/08/25 04:08:57;;;;;;;11.75;3.90;;;;;;;27.28;38.79;101736.09;5094153;28;20036;-72
2022/08/25 04:11:24;;;;;;;8.90;3.97;;;;;;;27.34;38.76;101732.09;5094133;28;20057;-72
2022/08/25 04:13:51;;;;;;;7.28;3.50;;;;;;;27.18;38.86;101727.28;5094027;28;20089;-72
2022/08/25 04:16:23;;;;;;;10.60;3.92;;;;;;;27.20;38.83;101719.50;5094263;28;20070;-73
2022/08/25 04:18:49;;;;;;;7.22;4.22;;;;;;;27.10;39.29;101715.06;5095097;28;20040;-73
2022/08/25 04:21:17;;;;;;;8.45;3.97;;;;;;;26.95;39.34;101719.00;5094582;28;20046;-72
2022/08/25 04:23:44;;;;;;;6.93;3.70;;;;;;;27.16;39.05;101713.78;5094628;28;20051;-72
2022/08/25 04:26:21;;;;;;;5.85;3.67;;;;;;;27.27;39.02;101712.41;5094468;28;20101;-72
2022/08/25 04:28:48;;;;;;;5.65;3.60;;;;;;;26.84;39.98;101717.63;5094256;28;20111;-72
2022/08/25 04:31:15;;;;;;;11.10;4.57;;;;;;;27.12;39.17;101720.25;5094547;28;20115;-72
2022/08/25 04:33:41;;;;;;;7.95;4.03;;;;;;;27.17;39.37;101712.66;5093999;28;20056;-72
2022/08/25 04:36:08;;;;;;;6.05;3.92;;;;;;;27.13;38.77;101725.44;5093870;28;20495;-74
2022/08/25 04:38:33;;;;;;;8.23;4.38;;;;;;;27.30;38.49;101716.47;5094015;28;20093;-72
2022/08/25 04:41:01;;;;;;;11.98;3.75;;;;;;;27.11;38.64;101718.59;5093927;28;20476;-73
2022/08/25 04:43:28;;;;;;;8.40;3.88;;;;;;;26.97;38.82;101712.38;5094061;28;20036;-71
2022/08/25 04:45:54;;;;;;;9.23;4.10;;;;;;;26.88;39.00;101721.38;5094073;28;20157;-72
2022/08/25 04:48:20;;;;;;;7.70;3.97;;;;;;;26.96;38.93;101714.31;5093825;28;20056;-72
2022/08/25 04:50:46;;;;;;;10.77;3.75;;;;;;;27.13;38.88;101710.81;5094012;28;20032;-72
2022/08/25 04:53:12;;;;;;;11.07;3.70;;;;;;;26.93;39.27;101715.72;5093807;28;20032;-71
2022/08/25 04:55:45;;;;;;;10.80;4.10;;;;;;;26.83;39.21;101717.91;5094089;28;20028;-72
2022/08/25 04:58:12;;;;;;;4.90;3.70;;;;;;;27.11;39.13;101708.38;5087265;28;20032;-72
2022/08/25 05:00:38;;;;;;;8.45;3.88;;;;;;;27.16;38.70;101711.03;5072534;28;20144;-72
2022/08/25 05:03:04;;;;;;;12.43;4.13;;;;;;;27.10;38.75;101706.78;5073574;28;20028;-72
2022/08/25 05:05:30;;;;;;;5.18;3.28;;;;;;;27.03;38.76;101705.59;5073317;28;20094;-72
2022/08/25 05:07:55;;;;;;;5.85;3.42;;;;;;;26.91;39.27;101708.88;5073534;28;20024;-73
2022/08/25 05:10:21;;;;;;;5.40;3.22;;;;;;;26.99;38.95;101710.09;5074049;28;20078;-73
2022/08/25 05:12:46;;;;;;;7.38;3.22;;;;;;;26.79;39.35;101714.19;5081063;28;20059;-72
2022/08/25 05:17:56;;;;;;;5.82;3.70;;;;;;;27.11;38.27;101713.09;5083270;28;20044;-73
2022/08/25 05:20:23;;;;;;;9.55;3.63;;;;;;;27.04;38.88;101713.56;5082030;28;20032;-73
2022/08/25 05:22:48;;;;;;;6.30;3.47;;;;;;;26.67;39.48;101716.63;5081847;28;20035;-72
2022/08/25 05:25:13;;;;;;;5.75;3.25;;;;;;;26.73;39.47;101715.44;5084644;28;20120;-72
2022/08/25 05:27:40;;;;;;;6.07;3.60;;;;;;;26.93;39.00;101720.44;5088259;28;20677;-72
2022/08/25 05:30:07;;;;;;;4.75;3.42;;;;;;;27.04;38.65;101716.31;5074709;28;20451;-72
2022/08/25 05:32:33;;;;;;;7.03;3.90;;;;;;;26.68;39.28;101715.50;5087547;28;20086;-74
2022/08/25 05:34:58;;;;;;;9.52;4.18;;;;;;;27.02;38.54;101714.97;5084230;28;20033;-72
2022/08/25 05:37:23;;;;;;;7.75;3.63;;;;;;;26.82;39.00;101711.59;5081346;28;20044;-72
2022/08/25 05:39:49;;;;;;;7.35;3.28;;;;;;;27.25;38.73;101713.84;5063644;28;20384;-72
2022/08/25 05:42:15;;;;;;;11.73;4.25;;;;;;;26.63;39.83;101716.41;5079286;28;20032;-73
2022/08/25 05:44:40;;;;;;;5.68;3.58;;;;;;;26.61;39.79;101713.16;5080650;28;20060;-73
2022/08/25 05:47:06;;;;;;;6.63;3.80;;;;;;;27.08;39.19;101716.50;5072762;28;20495;-73
2022/08/25 05:49:31;;;;;;;5.00;3.75;;;;;;;27.37;38.10;101716.84;5088034;28;20048;-70
2022/08/25 05:51:57;;;;;;;6.03;3.70;;;;;;;27.45;38.22;101722.44;5093365;28;20418;-70
2022/08/25 05:54:22;;;;;;;5.60;3.40;;;;;;;27.67;38.09;101710.53;5074466;28;20048;-70
2022/08/25 05:56:47;;;;;;;5.60;3.30;;;;;;;27.75;38.17;101716.06;5092600;28;20040;-70
2022/08/25 05:59:13;;;;;;;5.97;3.15;;;;;;;27.70;38.09;101715.41;5091347;28;20051;-69
2022/08/25 06:04:23;;;;;;;9.95;3.42;;;;;;;27.61;37.93;101717.31;5072628;28;20486;-71
2022/08/25 06:06:52;;;;;;;7.93;3.63;;;;;;;27.68;37.98;101721.25;5073619;28;20036;-69
2022/08/25 06:09:17;;;;;;;12.63;3.70;;;;;;;27.84;37.75;101721.63;5089668;28;20086;-70
2022/08/25 06:11:43;;;;;;;11.73;3.30;;;;;;;27.78;37.73;101718.22;5075402;28;20037;-70
2022/08/25 06:14:09;;;;;;;5.22;3.35;;;;;;;27.87;37.95;101726.53;5072062;28;20082;-69
2022/08/25 06:16:37;;;;;;;5.78;4.13;;;;;;;27.76;37.63;101720.47;5085245;28;20078;-68
2022/08/25 06:19:03;;;;;;;6.35;4.15;;;;;;;27.85;38.10;101720.50;5093086;28;20047;-70
2022/08/25 06:21:29;;;;;;;6.10;4.28;;;;;;;27.92;37.64;101720.03;5091864;28;20041;-70
2022/08/25 06:23:55;;;;;;;8.98;3.88;;;;;;;28.04;38.06;101723.84;5086960;28;20028;-70
2022/08/25 06:26:20;;;;;;;5.00;3.22;;;;;;;28.04;37.74;101721.09;5072038;28;20032;-69
2022/08/25 06:28:45;;;;;;;10.23;3.60;;;;;;;28.07;37.88;101719.66;5072147;28;20881;-70
2022/08/25 06:31:11;;;;;;;7.13;3.38;;;;;;;28.11;38.04;101721.44;5072742;28;20032;-70
2022/08/25 06:33:36;;;;;;;4.68;3.88;;;;;;;28.18;37.67;101721.78;5072322;28;20048;-69
2022/08/25 06:36:02;;;;;;;7.22;3.97;;;;;;;28.31;37.63;101729.13;5071739;28;20095;-70
2022/08/25 06:38:28;;;;;;;8.63;4.80;;;;;;;28.31;37.44;101729.13;5071968;28;20032;-70
2022/08/25 06:40:56;;;;;;;6.50;4.10;;;;;;;28.32;37.62;101733.53;5072112;28;20036;-70
2022/08/25 06:43:22;;;;;;;5.50;3.75;;;;;;;28.55;37.30;101734.22;5071998;28;20052;-68
2022/08/25 06:45:47;;;;;;;9.23;3.45;;;;;;;28.51;37.68;101727.69;5072143;28;20029;-70
2022/08/25 06:48:13;;;;;;;9.10;3.20;;;;;;;28.59;37.36;101727.72;5071540;28;20497;-69
2022/08/25 06:50:39;;;;;;;9.38;3.58;;;;;;;28.63;37.51;101733.41;5077965;28;20032;-69
2022/08/25 06:53:04;;;;;;;6.30;3.45;;;;;;;28.80;36.86;101727.06;5091761;28;20034;-70
2022/08/25 06:55:31;;;;;;;9.82;3.97;;;;;;;28.93;36.89;101731.63;5072525;28;20085;-70
2022/08/25 06:57:56;;;;;;;12.50;3.15;;;;;;;28.95;36.92;101723.81;5089337;28;20035;-70
2022/08/25 07:00:21;;;;;;;6.03;4.10;;;;;;;28.96;37.23;101722.66;5079883;28;20032;-69
2022/08/25 07:02:47;;;;;;;9.50;4.43;;;;;;;29.05;37.09;101721.50;5082014;28;20509;-70
2022/08/25 07:05:13;;;;;;;9.35;4.43;;;;;;;28.94;37.01;101724.94;5080933;28;20124;-68
2022/08/25 07:07:38;;;;;;;6.22;3.92;;;;;;;28.72;37.23;101719.59;5080491;28;20486;-70
2022/08/25 07:10:05;;;;;;;6.68;3.15;;;;;;;29.22;36.65;101721.53;5082610;28;20030;-70
2022/08/25 07:12:30;;;;;;;6.00;3.15;;;;;;;29.14;37.00;101718.78;5080431;28;20039;-70
2022/08/25 07:14:56;;;;;;;9.80;3.97;;;;;;;29.30;37.04;101726.25;5080201;28;20044;-69
2022/08/25 07:17:22;;;;;;;9.45;3.47;;;;;;;29.46;36.77;101729.28;5088561;28;20043;-70
2022/08/25 07:19:48;;;;;;;6.57;2.60;;;;;;;29.57;36.35;101730.53;5076518;28;20043;-64
2022/08/25 07:22:13;;;;;;;5.97;3.53;;;;;;;29.63;36.04;101728.41;5080159;28;20028;-63
2022/08/25 07:24:39;;;;;;;4.40;2.88;;;;;;;29.72;36.32;101721.72;5078827;28;20032;-63
2022/08/25 07:27:05;;;;;;;3.97;2.85;;;;;;;29.81;35.85;101728.03;5078522;28;20040;-62
2022/08/25 07:29:32;;;;;;;10.50;3.15;;;;;;;29.84;35.81;101732.91;5080571;28;20032;-63
2022/08/25 07:31:58;;;;;;;9.70;3.78;;;;;;;29.82;35.92;101732.44;5079596;28;20480;-61
2022/08/25 07:37:07;;;;;;;10.30;3.10;;;;;;;30.07;36.08;101728.72;5081573;28;20460;-62
2022/08/25 07:39:33;;;;;;;6.57;3.50;;;;;;;30.15;35.93;101732.59;5078828;28;20041;-63
2022/08/25 07:41:59;;;;;;;7.65;3.83;;;;;;;30.22;36.03;101730.94;5080378;28;20032;-62
2022/08/25 07:44:26;;;;;;;13.35;3.78;;;;;;;30.00;36.64;101733.97;5080870;28;20036;-62
2022/08/25 07:46:52;;;;;;;8.85;3.33;;;;;;;30.29;36.30;101725.69;5083342;28;20051;-61
2022/08/25 07:49:18;;;;;;;8.07;3.13;;;;;;;30.27;36.06;101735.44;5079854;28;20071;-66
2022/08/25 07:51:45;;;;;;;14.70;4.13;;;;;;;30.18;36.79;101731.91;5079348;28;20051;-61
2022/08/25 07:54:10;;;;;;;6.00;3.50;;;;;;;30.60;35.53;101724.50;5080499;28;20036;-62
2022/08/25 07:56:35;;;;;;;7.28;3.15;;;;;;;30.64;35.67;101725.44;5075479;28;20346;-63
2022/08/25 07:59:01;;;;;;;8.82;3.00;;;;;;;30.77;35.25;101727.94;5070739;28;20102;-62
2022/08/25 08:01:26;;;;;;;5.30;3.10;;;;;;;30.91;34.50;101730.47;5081996;28;20048;-62
2022/08/25 08:03:52;;;;;;;10.80;3.03;;;;;;;30.76;35.10;101723.53;5082764;28;20028;-63
2022/08/25 08:06:21;;;;;;;4.70;3.00;;;;;;;31.02;34.54;101731.66;5090975;28;20032;-62
2022/08/25 08:08:48;;;;;;;11.77;4.13;;;;;;;31.15;34.22;101734.13;5081777;28;20059;-64
2022/08/25 08:11:25;;;;;;;4.50;2.95;;;;;;;30.94;34.56;101727.81;5070759;28;20029;-65
2022/08/25 08:13:53;;;;;;;7.80;3.10;;;;;;;31.06;34.56;101729.81;5087423;28;20025;-66
2022/08/25 08:16:19;;;;;;;5.95;2.85;;;;;;;31.35;34.75;101732.44;5091164;28;20606;-64
2022/08/25 08:18:45;;;;;;;11.55;3.13;;;;;;;31.38;34.10;101725.44;5090962;28;20068;-64
2022/08/25 08:21:15;;;;;;;5.78;3.40;;;;;;;31.41;34.08;101725.56;5090557;28;20047;-64
2022/08/25 08:23:40;;;;;;;14.33;3.23;;;;;;;31.52;34.32;101718.41;5091215;28;20400;-63
2022/08/25 08:26:06;;;;;;;6.20;3.22;;;;;;;31.76;33.87;101714.84;5090780;28;20437;-66
2022/08/25 08:28:31;;;;;;;8.45;3.78;;;;;;;31.85;33.51;101721.91;5090859;28;20480;-66
2022/08/25 08:30:57;;;;;;;7.53;3.30;;;;;;;31.80;34.12;101716.56;5091118;28;20020;-64
2022/08/25 08:33:23;;;;;;;8.15;3.60;;;;;;;31.75;34.20;101713.22;5090459;28;20033;-65
2022/08/25 08:35:58;;;;;;;4.35;2.83;;;;;;;32.26;33.33;101711.69;5093201;28;20081;-65
2022/08/25 08:38:24;;;;;;;7.75;2.78;;;;;;;32.24;33.45;101706.50;5094305;28;20032;-66
2022/08/25 08:43:45;;;;;;;10.00;3.40;;;;;;;32.48;32.23;101698.13;5094039;28;20043;-65
2022/08/25 08:46:11;;;;;;;5.90;2.80;;;;;;;32.68;32.10;101693.53;5094592;28;20032;-65
2022/08/25 08:48:43;;;;;;;7.60;2.50;;;;;;;32.56;32.38;101693.59;5074866;28;20043;-66
2022/08/25 08:51:16;;;;;;;4.93;2.50;;;;;;;32.86;32.19;101692.09;5093678;28;20090;-64
2022/08/25 08:53:49;;;;;;;7.40;3.25;;;;;;;32.78;32.50;101685.50;5093946;28;20029;-64
2022/08/25 08:56:21;;;;;;;10.88;3.10;;;;;;;32.92;32.37;101678.72;5094018;28;20072;-65
2022/08/25 08:58:58;;;;;;;4.38;2.72;;;;;;;33.22;31.81;101683.53;5076294;28;20032;-64
2022/08/25 09:01:32;;;;;;;7.30;3.13;;;;;;;33.07;32.06;101684.34;5093467;28;20526;-65
2022/08/25 09:04:07;;;;;;;7.88;3.47;;;;;;;33.54;31.17;101676.88;5094084;28;20042;-65
2022/08/25 09:06:41;;;;;;;5.78;2.40;;;;;;;33.20;32.15;101663.59;5093597;28;20028;-66
2022/08/25 09:09:10;;;;;;;8.07;2.55;;;;;;;33.20;32.23;101671.16;5093389;28;20047;-64
2022/08/25 09:11:41;;;;;;;6.78;3.03;;;;;;;33.61;31.46;101654.72;5093284;28;20533;-65
2022/08/25 09:14:25;;;;;;;8.35;2.50;;;;;;;33.81;31.61;101646.44;5093151;28;20345;-65
2022/08/25 09:17:04;;;;;;;9.93;3.22;;;;;;;34.06;30.16;101656.22;5092786;28;20115;-64
2022/08/25 09:20:00;;;;;;;9.07;2.88;;;;;;;34.17;30.54;101654.47;5093842;28;20042;-64
2022/08/25 09:22:32;;;;;;;3.67;2.55;;;;;;;34.31;29.67;101655.59;5094039;28;20020;-64
2022/08/25 09:25:19;;;;;;;7.40;2.50;;;;;;;34.43;29.08;101646.28;5094358;28;20032;-64
2022/08/25 09:28:04;;;;;;;12.50;2.92;;;;;;;34.25;28.81;101651.47;5094036;28;20040;-65
2022/08/25 09:30:56;;;;;;;4.82;2.28;;;;;;;34.61;28.00;101639.09;5075484;28;20040;-66
2022/08/25 09:33:24;;;;;;;8.32;2.88;;;;;;;34.21;29.24;101644.19;5011003;28;20038;-64
2022/08/25 09:35:51;;;;;;;3.03;2.05;;;;;;;34.30;28.92;101648.38;5011003;28;20576;-65
2022/08/25 09:38:18;;;;;;;11.65;2.60;;;;;;;34.82;28.10;101642.31;5011026;28;20538;-64
2022/08/25 09:40:47;;;;;;;6.60;3.03;;;;;;;34.64;28.12;101641.16;5010957;28;20073;-72
2022/08/25 09:43:33;;;;;;;6.35;3.03;;;;;;;34.39;29.01;101640.63;4994451;28;20034;-72
2022/08/25 09:46:01;;;;;;;5.95;2.67;;;;;;;35.03;27.51;101641.91;5010636;28;20041;-73
2022/08/25 09:48:49;;;;;;;3.55;2.50;;;;;;;35.29;26.79;101640.00;5011094;28;20189;-72
2022/08/25 09:51:23;;;;;;;5.57;2.55;;;;;;;35.21;27.00;101638.28;5010282;28;20378;-72
2022/08/25 09:54:16;;;;;;;6.80;2.53;;;;;;;35.45;26.21;101630.69;5010924;28;20038;-72
2022/08/25 09:56:52;;;;;;;7.18;2.30;;;;;;;35.43;25.69;101625.47;5010704;28;20069;-72
2022/08/25 09:59:28;;;;;;;3.83;2.10;;;;;;;35.57;25.90;101628.53;5010785;28;20037;-74
2022/08/25 10:01:59;;;;;;;4.32;2.50;;;;;;;35.85;25.50;101626.13;5010727;28;20034;-72
2022/08/25 10:04:30;;;;;;;7.75;2.28;;;;;;;35.90;25.21;101620.22;5010435;28;20057;-72
2022/08/25 10:06:58;;;;;;;3.83;2.08;;;;;;;35.64;25.92;101617.44;5010467;28;20052;-71
2022/08/25 10:09:41;;;;;;;6.32;2.40;;;;;;;35.81;25.38;101618.91;5020038;28;20124;-70
2022/08/25 10:12:20;;;;;;;3.72;2.10;;;;;;;35.99;25.41;101617.19;5092860;28;20035;-71
2022/08/25 10:14:46;;;;;;;8.53;2.60;;;;;;;36.00;24.69;101614.00;5092712;28;20059;-70
2022/08/25 10:17:15;;;;;;;8.55;2.05;;;;;;;36.38;24.85;101615.72;5087234;28;20784;-71
2022/08/25 10:19:40;;;;;;;3.90;1.88;;;;;;;36.56;25.06;101608.34;5091871;28;20103;-71
2022/08/25 10:22:09;;;;;;;11.18;1.92;;;;;;;36.76;23.66;101604.16;5092209;28;20103;-72
2022/08/25 10:24:36;;;;;;;3.95;2.05;;;;;;;36.61;23.73;101598.78;5091853;28;20062;-72
2022/08/25 10:27:22;;;;;;;4.00;1.83;;;;;;;36.80;23.90;101598.59;5073327;28;20068;-72
2022/08/25 10:30:18;;;;;;;4.40;2.13;;;;;;;36.49;23.78;101607.44;5091544;28;20142;-71
2022/08/25 10:33:14;;;;;;;8.02;1.88;;;;;;;36.84;22.96;101594.63;5081777;28;20049;-71
2022/08/25 10:35:57;;;;;;;3.78;2.10;;;;;;;37.24;23.45;101590.22;5082711;28;20036;-72
2022/08/25 10:38:35;;;;;;;6.30;2.00;;;;;;;36.97;24.18;101586.78;5082902;28;20056;-72
2022/08/25 10:41:33;;;;;;;3.92;2.00;;;;;;;36.61;23.67;101581.97;5082808;28;20040;-71
2022/08/25 10:47:26;;;;;;;6.22;2.00;;;;;;;37.09;21.84;101580.09;5082792;28;20043;-71
2022/08/25 10:50:03;;;;;;;3.45;1.90;;;;;;;37.55;22.05;101576.47;5082670;28;20503;-71
2022/08/25 10:52:35;;;;;;;4.90;2.00;;;;;;;37.50;21.76;101570.44;5072268;28;20457;-71
2022/08/25 10:55:42;;;;;;;5.32;2.10;;;;;;;37.75;21.86;101565.78;5072643;28;20067;-71
2022/08/25 10:58:34;;;;;;;4.25;1.80;;;;;;;37.74;21.43;101555.75;5009174;28;20048;-71
2022/08/25 11:01:18;;;;;;;5.28;1.80;;;;;;;38.07;21.28;101551.94;5013222;28;20113;-72
2022/08/25 11:03:59;;;;;;;6.93;1.83;;;;;;;37.75;20.66;101552.56;5029007;28;20038;-71
2022/08/25 11:06:44;;;;;;;8.40;2.55;;;;;;;38.29;20.95;101556.47;5029159;28;20243;-71
2022/08/25 11:09:14;;;;;;;9.40;2.10;;;;;;;38.52;20.70;101548.47;5029254;28;20059;-71
2022/08/25 11:12:10;;;;;;;4.32;1.88;;;;;;;38.41;20.98;101542.81;5029344;28;20098;-71
2022/08/25 11:14:41;;;;;;;3.83;1.60;;;;;;;38.61;20.69;101540.47;5029108;28;20061;-70
2022/08/25 11:17:28;;;;;;;9.32;1.77;;;;;;;38.69;20.49;101539.31;5014368;28;20074;-70
2022/08/25 11:20:02;;;;;;;3.80;1.85;;;;;;;39.01;19.45;101542.13;5019931;28;20048;-68
2022/08/25 11:22:44;;;;;;;6.20;1.80;;;;;;;39.18;19.71;101535.72;5019423;28;20030;-69
2022/08/25 11:25:24;;;;;;;3.00;1.35;;;;;;;39.32;19.14;101535.72;5024084;28;20059;-69
2022/08/25 11:27:54;;;;;;;;;;;;;;;39.40;18.74;101534.50;5029746;28;20045;-69
2022/08/25 11:30:20;;;;;;;;;;;;;;;39.24;19.46;101520.84;5029646;28;20320;-70
2022/08/25 11:32:50;;;;;;;4.13;1.80;;;;;;;38.97;18.71;101525.28;5023264;28;19948;-72
2022/08/25 11:35:24;;;;;;;4.25;1.92;;;;;;;39.12;18.67;101529.72;5057467;28;20046;-70
2022/08/25 11:38:21;;;;;;;4.20;1.50;;;;;;;39.20;18.63;101522.06;5088946;28;20111;-71
2022/08/25 11:41:25;;;;;;;6.07;2.63;;;;;;;39.42;18.98;101515.19;5088362;28;20059;-72
2022/08/25 11:44:29;;;;;;;4.63;1.73;;;;;;;39.04;18.72;101518.84;5088401;28;20084;-70
2022/08/25 11:46:58;;;;;;;2.60;1.50;;;;;;;39.61;18.59;101528.06;5088042;28;20047;-72
2022/08/25 11:49:36;;;;;;;3.90;1.55;;;;;;;39.70;17.99;101519.97;5083904;28;20064;-70
2022/08/25 11:52:04;;;;;;;4.43;1.70;;;;;;;39.39;17.79;101508.34;5069303;28;20071;-66